| time (UTC) | temp F | wind direction | speed MPH | gust MPH | rain 1hr in | rain 24hr in | rain mn in | humidity % | barometer mb |
| 20260505124543 | 52 | 71 | 0.0 | 0.0 | 0.00 | 0.23 | 0.00 | 82 | 1012.6 |
| 20260505123037 | 52 | 71 | 0.0 | 0.0 | 0.00 | 0.23 | 0.00 | 82 | 1012.7 |
| 20260505121539 | 52 | 71 | 0.0 | 0.0 | 0.00 | 0.23 | 0.00 | 82 | 1012.8 |
| 20260505120043 | 52 | 71 | 0.0 | 0.0 | 0.00 | 0.23 | 0.00 | 82 | 1012.7 |
| 20260505114534 | 52 | 71 | 0.0 | 0.0 | 0.00 | 0.23 | 0.00 | 82 | 1012.7 |
| 20260505113035 | 53 | 71 | 0.0 | 0.0 | 0.00 | 0.23 | 0.00 | 82 | 1012.9 |
| 20260505111533 | 53 | 71 | 0.0 | 0.0 | 0.00 | 0.23 | 0.00 | 82 | 1012.8 |
| 20260505101538 | 53 | 71 | 0.0 | 0.0 | 0.00 | 0.23 | 0.00 | 82 | 1012.8 |
| 20260505100030 | 53 | 71 | 0.0 | 0.0 | 0.00 | 0.23 | 0.00 | 82 | 1012.9 |
| 20260505094530 | 53 | 71 | 0.0 | 0.0 | 0.00 | 0.23 | 0.00 | 82 | 1012.7 |
| 20260505093027 | 53 | 71 | 0.0 | 0.0 | 0.00 | 0.23 | 0.00 | 82 | 1012.6 |
| 20260505091526 | 53 | 71 | 0.0 | 0.0 | 0.00 | 0.23 | 0.00 | 83 | 1012.8 |
| 20260505090023 | 53 | 71 | 0.0 | 0.0 | 0.00 | 0.23 | 0.00 | 83 | 1013.3 |
| 20260505084533 | 53 | 71 | 0.0 | 0.0 | 0.00 | 0.23 | 0.00 | 83 | 1013.5 |
| 20260505083020 | 53 | 71 | 0.0 | 0.0 | 0.00 | 0.23 | 0.00 | 83 | 1013.4 |
| 20260505081520 | 53 | 71 | 0.0 | 0.0 | 0.00 | 0.23 | 0.00 | 83 | 1013.5 |
| 20260505080020 | 53 | 71 | 0.0 | 0.0 | 0.00 | 0.23 | 0.00 | 83 | 1013.6 |
| 20260505074517 | 53 | 71 | 0.0 | 0.0 | 0.00 | 0.23 | 0.00 | 83 | 1013.6 |
| 20260505073020 | 53 | 71 | 0.0 | 0.0 | 0.01 | 0.23 | 0.00 | 83 | 1013.8 |
| 20260505071512 | 53 | 71 | 0.0 | 0.0 | 0.01 | 0.23 | 0.00 | 83 | 1013.6 |
| 20260505070010 | 53 | 71 | 0.0 | 0.0 | 0.01 | 0.23 | 0.00 | 83 | 1013.4 |
| 20260505064508 | 53 | 71 | 0.0 | 0.0 | 0.01 | 0.23 | 0.23 | 83 | 1013.7 |
| 20260505063011 | 53 | 71 | 0.0 | 0.0 | 0.00 | 0.22 | 0.22 | 83 | 1013.7 |
| 20260505061507 | 53 | 71 | 0.0 | 0.0 | 0.00 | 0.22 | 0.22 | 83 | 1014.0 |
| 20260505060008 | 53 | 71 | 0.0 | 0.0 | 0.00 | 0.22 | 0.22 | 84 | 1013.9 |
| 20260505054505 | 53 | 71 | 0.0 | 0.0 | 0.00 | 0.22 | 0.22 | 84 | 1013.4 |
| 20260505053004 | 53 | 71 | 0.0 | 0.0 | 0.00 | 0.22 | 0.22 | 84 | 1013.7 |
| 20260505051506 | 53 | 71 | 0.0 | 1.0 | 0.00 | 0.22 | 0.22 | 85 | 1014.0 |
| 20260505041605 | 54 | 71 | 0.0 | 0.0 | 0.00 | 0.22 | 0.22 | 85 | 1014.0 |
| 20260505040100 | 54 | 71 | 0.0 | 0.0 | 0.00 | 0.22 | 0.22 | 85 | 1013.9 |
| 20260505034558 | 54 | 71 | 0.0 | 0.0 | 0.00 | 0.22 | 0.22 | 85 | 1013.7 |
| 20260505033058 | 54 | 71 | 0.0 | 0.0 | 0.00 | 0.22 | 0.22 | 85 | 1013.4 |
| 20260505031606 | 54 | 71 | 0.0 | 0.0 | 0.01 | 0.22 | 0.22 | 85 | 1013.5 |
| 20260505030059 | 54 | 71 | 0.0 | 0.0 | 0.01 | 0.22 | 0.22 | 85 | 1012.6 |
| 20260505024604 | 54 | 71 | 0.0 | 0.0 | 0.02 | 0.22 | 0.22 | 85 | 1013.4 |
| 20260505023055 | 54 | 71 | 0.0 | 0.0 | 0.04 | 0.22 | 0.22 | 86 | 1013.6 |
| 20260505021558 | 55 | 71 | 0.0 | 2.0 | 0.04 | 0.21 | 0.21 | 86 | 1013.6 |
| 20260505020054 | 55 | 71 | 0.0 | 0.0 | 0.04 | 0.21 | 0.21 | 86 | 1013.9 |
| 20260505014606 | 55 | 71 | 0.0 | 0.0 | 0.03 | 0.20 | 0.20 | 86 | 1013.8 |
| 20260505013053 | 55 | 71 | 0.0 | 1.0 | 0.02 | 0.18 | 0.18 | 86 | 1013.8 |
| 20260505011602 | 56 | 71 | 0.0 | 0.0 | 0.01 | 0.17 | 0.17 | 86 | 1013.9 |
| 20260505010050 | 56 | 71 | 0.0 | 0.0 | 0.02 | 0.17 | 0.17 | 86 | 1014.1 |
| 20260505004548 | 56 | 71 | 0.0 | 0.0 | 0.02 | 0.17 | 0.17 | 86 | 1013.8 |
| 20260505003047 | 56 | 71 | 0.0 | 1.0 | 0.02 | 0.16 | 0.16 | 87 | 1013.8 |
| 20260505001547 | 57 | 71 | 0.0 | 0.0 | 0.02 | 0.16 | 0.16 | 87 | 1013.6 |
| 20260505000100 | 57 | 71 | 0.0 | 0.0 | 0.03 | 0.15 | 0.15 | 87 | 1013.6 |
| 20260504234549 | 57 | 71 | 0.0 | 0.0 | 0.04 | 0.15 | 0.15 | 86 | 1013.7 |
| 20260504233103 | 58 | 71 | 0.0 | 0.0 | 0.04 | 0.14 | 0.14 | 86 | 1013.7 |
| 20260504231544 | 58 | 71 | 0.0 | 0.0 | 0.06 | 0.14 | 0.14 | 86 | 1013.6 |
| 20260504230044 | 57 | 71 | 0.0 | 0.0 | 0.07 | 0.12 | 0.12 | 86 | 1013.7 |
| 20260504224543 | 58 | 71 | 0.0 | 0.0 | 0.08 | 0.11 | 0.11 | 86 | 1013.8 |
| 20260504223056 | 58 | 71 | 0.0 | 0.0 | 0.09 | 0.10 | 0.10 | 86 | 1013.9 |
| 20260504221543 | 58 | 71 | 0.0 | 0.0 | 0.08 | 0.08 | 0.08 | 86 | 1013.8 |
| 20260504220042 | 59 | 71 | 0.0 | 0.0 | 0.05 | 0.05 | 0.05 | 85 | 1013.6 |
| 20260504214540 | 59 | 71 | 0.0 | 0.0 | 0.03 | 0.03 | 0.03 | 84 | 1013.4 |
| 20260504213052 | 60 | 71 | 0.0 | 0.0 | 0.01 | 0.01 | 0.01 | 82 | 1013.4 |
| 20260504211539 | 62 | 71 | 0.0 | 2.0 | 0.00 | 0.00 | 0.00 | 78 | 1013.5 |
| 20260504210041 | 62 | 71 | 0.0 | 1.0 | 0.00 | 0.00 | 0.00 | 75 | 1013.5 |
| 20260504204545 | 63 | 71 | 0.0 | 1.0 | 0.00 | 0.00 | 0.00 | 74 | 1013.4 |
| 20260504203044 | 63 | 71 | 0.0 | 0.0 | 0.00 | 0.00 | 0.00 | 71 | 1013.2 |
| 20260504201538 | 63 | 71 | 0.0 | 0.0 | 0.00 | 0.00 | 0.00 | 72 | 1013.2 |
| 20260504200037 | 64 | 71 | 0.0 | 0.0 | 0.00 | 0.00 | 0.00 | 70 | 1013.3 |
| 20260504194536 | 64 | 71 | 0.0 | 0.0 | 0.00 | 0.00 | 0.00 | 67 | 1013.4 |
| 20260504193036 | 65 | 71 | 0.0 | 0.0 | 0.00 | 0.00 | 0.00 | 65 | 1013.3 |
| 20260504191535 | 64 | 71 | 0.0 | 0.0 | 0.00 | 0.00 | 0.00 | 66 | 1013.3 |
| 20260504190037 | 64 | 71 | 0.0 | 1.0 | 0.00 | 0.00 | 0.00 | 68 | 1013.4 |
| 20260504184533 | 65 | 71 | 0.0 | 0.0 | 0.00 | 0.00 | 0.00 | 67 | 1013.5 |
| 20260504183032 | 64 | 71 | 0.0 | 0.0 | 0.00 | 0.00 | 0.00 | 69 | 1013.4 |
| 20260504181541 | 64 | 71 | 0.0 | 1.0 | 0.00 | 0.00 | 0.00 | 70 | 1013.3 |
| 20260504180030 | 64 | 71 | 0.0 | 1.0 | 0.00 | 0.00 | 0.00 | 70 | 1013.5 |
| 20260504174527 | 63 | 71 | 0.0 | 0.0 | 0.00 | 0.00 | 0.00 | 73 | 1013.6 |
| 20260504173026 | 63 | 71 | 0.0 | 0.0 | 0.00 | 0.00 | 0.00 | 74 | 1013.5 |
| 20260504171521 | 61 | 71 | 0.0 | 2.0 | 0.00 | 0.00 | 0.00 | 79 | 1013.5 |